createdAt,value
2018-08-24T00:00:20.744Z,94
2018-08-24T00:01:22.846Z,94
2018-08-24T00:02:24.932Z,94
2018-08-24T00:03:27.433Z,94
2018-08-24T00:04:29.529Z,94
2018-08-24T00:05:31.625Z,95
2018-08-24T00:06:33.730Z,95
2018-08-24T00:07:35.821Z,95
2018-08-24T00:08:38.316Z,95
2018-08-24T00:09:40.427Z,95
2018-08-24T00:10:42.536Z,95
2018-08-24T00:11:45.015Z,95
2018-08-24T00:12:47.127Z,94
2018-08-24T00:13:49.538Z,94
2018-08-24T00:14:51.635Z,95
2018-08-24T00:15:53.745Z,94
2018-08-24T00:16:55.836Z,94
2018-08-24T00:17:57.939Z,94
2018-08-24T00:19:00.031Z,94
2018-08-24T00:20:02.142Z,95
2018-08-24T00:21:04.235Z,95
2018-08-24T00:22:06.632Z,95
2018-08-24T00:23:09.137Z,95
2018-08-24T00:24:11.515Z,95
2018-08-24T00:25:13.919Z,95
2018-08-24T00:26:16.014Z,95
2018-08-24T00:27:18.106Z,95
2018-08-24T00:28:20.205Z,95
2018-08-24T00:29:22.317Z,95
2018-08-24T00:30:24.409Z,95
2018-08-24T00:31:26.832Z,95
2018-08-24T00:32:28.937Z,95
2018-08-24T00:33:31.324Z,95
2018-08-24T00:34:33.429Z,95
2018-08-24T00:35:35.542Z,94
2018-08-24T00:36:38.016Z,95
2018-08-24T00:37:40.134Z,95
2018-08-24T00:38:42.531Z,95
2018-08-24T00:39:44.639Z,95
2018-08-24T00:40:46.726Z,95
2018-08-24T00:41:48.830Z,95
2018-08-24T00:42:51.080Z,95
2018-08-24T00:43:53.043Z,95
2018-08-24T00:44:55.130Z,95
2018-08-24T00:45:57.241Z,95
2018-08-24T00:46:59.342Z,95
2018-08-24T00:48:01.434Z,94
2018-08-24T00:49:03.849Z,94
2018-08-24T00:50:05.942Z,94
2018-08-24T00:51:08.434Z,94
2018-08-24T00:52:10.525Z,94
2018-08-24T00:53:12.644Z,94
2018-08-24T00:54:14.735Z,95
2018-08-24T00:55:17.230Z,95
2018-08-24T00:56:19.337Z,94
2018-08-24T00:57:21.428Z,95
2018-08-24T00:58:23.543Z,95
2018-08-24T00:59:25.640Z,95
2018-08-24T01:00:27.738Z,95
2018-08-24T01:01:29.838Z,95
2018-08-24T01:02:32.621Z,95
2018-08-24T01:03:34.716Z,95
2018-08-24T01:04:36.828Z,95
2018-08-24T01:05:38.930Z,95
2018-08-24T01:06:41.306Z,95
2018-08-24T01:07:43.407Z,95
2018-08-24T01:08:45.516Z,95
2018-08-24T01:09:47.601Z,95
2018-08-24T01:10:49.706Z,95
2018-08-24T01:11:51.806Z,95
2018-08-24T01:12:53.900Z,95
2018-08-24T01:13:56.009Z,95
2018-08-24T01:14:58.107Z,95
2018-08-24T01:16:00.205Z,95
2018-08-24T01:17:02.690Z,95
2018-08-24T01:18:04.795Z,95
2018-08-24T01:19:06.904Z,95
2018-08-24T01:20:09.004Z,95
2018-08-24T01:21:11.962Z,95
2018-08-24T01:22:14.078Z,95
2018-08-24T01:23:16.467Z,95
2018-08-24T01:24:18.863Z,95
2018-08-24T01:25:21.244Z,95
2018-08-24T01:26:23.641Z,95
2018-08-24T01:27:26.151Z,95
2018-08-24T01:28:28.230Z,95
2018-08-24T01:29:30.625Z,94
2018-08-24T01:30:32.713Z,94
2018-08-24T01:31:34.825Z,94
2018-08-24T01:32:36.929Z,94
2018-08-24T01:33:39.021Z,94
2018-08-24T01:34:41.413Z,94
2018-08-24T01:35:43.818Z,94
2018-08-24T01:36:45.910Z,93
2018-08-24T01:37:48.028Z,94
2018-08-24T01:38:50.126Z,94
2018-08-24T01:39:52.519Z,94
2018-08-24T01:40:54.617Z,94
2018-08-24T01:41:56.732Z,94
2018-08-24T01:42:58.822Z,94
2018-08-24T01:44:00.925Z,95
2018-08-24T01:45:03.031Z,95
2018-08-24T01:46:05.129Z,95
2018-08-24T01:47:07.242Z,95
2018-08-24T01:48:09.338Z,95
2018-08-24T01:49:11.743Z,95
2018-08-24T01:50:14.228Z,95
2018-08-24T01:51:16.338Z,95
2018-08-24T01:52:18.430Z,96
2018-08-24T01:53:20.532Z,96
2018-08-24T01:54:22.644Z,95
2018-08-24T01:55:25.141Z,95
2018-08-24T01:56:27.231Z,95
2018-08-24T01:57:29.338Z,95
2018-08-24T01:58:31.722Z,95
2018-08-24T01:59:33.840Z,95
2018-08-24T02:00:35.929Z,94
2018-08-24T02:01:38.322Z,94
2018-08-24T02:02:40.816Z,94
2018-08-24T02:03:43.194Z,95
2018-08-24T02:04:45.307Z,94
2018-08-24T02:05:47.407Z,94
2018-08-24T02:06:49.502Z,95
2018-08-24T02:07:51.595Z,95
2018-08-24T02:08:53.711Z,95
2018-08-24T02:09:56.382Z,94
2018-08-24T02:10:58.491Z,93
2018-08-24T02:12:00.593Z,93
2018-08-24T02:13:02.687Z,92
2018-08-24T02:14:04.792Z,92
2018-08-24T02:15:06.897Z,91
2018-08-24T02:16:08.983Z,91
2018-08-24T02:17:11.089Z,92
2018-08-24T02:18:13.204Z,91
2018-08-24T02:19:15.695Z,91
2018-08-24T02:20:18.258Z,91
2018-08-24T02:21:20.348Z,90
2018-08-24T02:22:22.444Z,89
2018-08-24T02:23:24.534Z,89
2018-08-24T02:24:27.034Z,90
2018-08-24T02:25:29.131Z,89
2018-08-24T02:26:31.521Z,89
2018-08-24T02:27:33.628Z,88
2018-08-24T02:28:36.106Z,88
2018-08-24T02:29:38.214Z,87
2018-08-24T02:30:40.318Z,89
2018-08-24T02:31:42.819Z,87
2018-08-24T02:32:44.906Z,87
2018-08-24T02:33:47.015Z,86
2018-08-24T02:34:49.503Z,86
2018-08-24T02:35:51.606Z,86
2018-08-24T02:36:53.717Z,86
2018-08-24T02:37:55.804Z,86
2018-08-24T02:38:57.908Z,86
2018-08-24T02:40:00.019Z,86
2018-08-24T02:41:02.796Z,86
2018-08-24T02:42:04.886Z,86
2018-08-24T02:43:06.991Z,86
2018-08-24T02:44:09.391Z,85
2018-08-24T02:45:11.650Z,87
2018-08-24T02:46:13.602Z,87
2018-08-24T02:47:15.698Z,87
2018-08-24T02:48:17.795Z,86
2018-08-24T02:49:20.196Z,85
2018-08-24T02:50:22.599Z,85
2018-08-24T02:51:25.083Z,85
2018-08-24T02:52:27.880Z,84
2018-08-24T02:53:29.974Z,85
2018-08-24T02:54:32.081Z,85
2018-08-24T02:55:34.475Z,86
2018-08-24T02:56:36.584Z,86
2018-08-24T02:57:38.674Z,85
2018-08-24T02:58:41.078Z,85
2018-08-24T02:59:43.182Z,86
2018-08-24T03:00:45.278Z,86
2018-08-24T03:01:47.397Z,85
2018-08-24T03:02:49.490Z,86
2018-08-24T03:03:51.593Z,86
2018-08-24T03:04:53.693Z,86
2018-08-24T03:05:55.803Z,87
2018-08-24T03:06:57.891Z,87
2018-08-24T03:07:59.992Z,86
2018-08-24T03:09:02.097Z,86
2018-08-24T03:10:04.181Z,87
2018-08-24T03:11:06.576Z,87
2018-08-24T03:12:08.680Z,87
2018-08-24T03:13:11.193Z,87
2018-08-24T03:14:13.300Z,87
2018-08-24T03:15:15.781Z,87
2018-08-24T03:16:17.952Z,87
2018-08-24T03:17:19.986Z,87
2018-08-24T03:18:22.375Z,87
2018-08-24T03:19:24.489Z,87
2018-08-24T03:20:26.590Z,87
2018-08-24T03:21:28.679Z,87
2018-08-24T03:22:30.796Z,87
2018-08-24T03:23:33.181Z,87
2018-08-24T03:24:35.278Z,87
2018-08-24T03:25:37.383Z,88
2018-08-24T03:26:39.470Z,88
2018-08-24T03:27:41.610Z,88
2018-08-24T03:28:43.751Z,88
2018-08-24T03:29:45.856Z,88
2018-08-24T03:30:48.233Z,88
2018-08-24T03:31:50.736Z,87
2018-08-24T03:32:53.134Z,87
2018-08-24T03:33:55.237Z,87
2018-08-24T03:34:57.339Z,87
2018-08-24T03:35:59.653Z,87
2018-08-24T03:37:01.766Z,87
2018-08-24T03:38:04.246Z,87
2018-08-24T03:39:06.374Z,87
2018-08-24T03:40:08.765Z,87
2018-08-24T03:41:11.159Z,87
2018-08-24T03:42:13.265Z,87
2018-08-24T03:43:15.354Z,87
2018-08-24T03:44:17.766Z,87
2018-08-24T03:45:20.161Z,87
2018-08-24T03:46:23.140Z,87
2018-08-24T03:47:25.235Z,87
2018-08-24T03:48:27.348Z,88
2018-08-24T03:49:29.758Z,87
2018-08-24T03:50:32.149Z,87
2018-08-24T03:51:34.246Z,87
2018-08-24T03:52:36.356Z,87
2018-08-24T03:53:38.814Z,88
2018-08-24T03:54:40.900Z,87
2018-08-24T03:55:43.015Z,87
2018-08-24T03:56:45.515Z,88
2018-08-24T03:57:47.618Z,88
2018-08-24T03:58:50.322Z,88
2018-08-24T03:59:52.409Z,88
2018-08-24T04:00:54.518Z,88
2018-08-24T04:01:56.918Z,88
2018-08-24T04:02:59.727Z,88
2018-08-24T04:04:01.825Z,88
2018-08-24T04:05:03.935Z,88
2018-08-24T04:06:06.418Z,88
2018-08-24T04:07:08.514Z,88
2018-08-24T04:08:10.631Z,88
2018-08-24T04:09:13.014Z,88
2018-08-24T04:10:15.118Z,88
2018-08-24T04:11:17.216Z,89
2018-08-24T04:12:19.626Z,89
2018-08-24T04:13:21.713Z,89
2018-08-24T04:14:23.820Z,89
2018-08-24T04:15:26.616Z,89
2018-08-24T04:16:28.695Z,89
2018-08-24T04:17:31.194Z,88
2018-08-24T04:18:33.296Z,89
2018-08-24T04:19:36.094Z,89
2018-08-24T04:20:38.588Z,89
2018-08-24T04:21:40.704Z,89
2018-08-24T04:22:42.794Z,88
2018-08-24T04:23:44.903Z,89
2018-08-24T04:24:47.319Z,89
2018-08-24T04:25:49.519Z,89
2018-08-24T04:26:51.510Z,89
2018-08-24T04:27:53.893Z,89
2018-08-24T04:28:56.304Z,90
2018-08-24T04:29:59.176Z,90
2018-08-24T04:31:01.272Z,90
2018-08-24T04:32:03.383Z,90
2018-08-24T04:33:05.474Z,90
2018-08-24T04:34:07.581Z,89
2018-08-24T04:35:09.689Z,89
2018-08-24T04:36:11.798Z,90
2018-08-24T04:37:14.172Z,89
2018-08-24T04:38:16.670Z,89
2018-08-24T04:39:19.071Z,89
2018-08-24T04:40:21.275Z,89
2018-08-24T04:41:23.270Z,89
2018-08-24T04:42:25.748Z,89
2018-08-24T04:43:27.851Z,89
2018-08-24T04:44:29.943Z,89
2018-08-24T04:45:32.448Z,89
2018-08-24T04:46:35.293Z,89
2018-08-24T04:47:37.399Z,89
2018-08-24T04:48:39.504Z,88
2018-08-24T04:49:41.596Z,88
2018-08-24T04:50:44.024Z,88
2018-08-24T04:51:46.122Z,88
2018-08-24T04:52:48.210Z,88
2018-08-24T04:53:50.704Z,88
2018-08-24T04:54:52.814Z,88
2018-08-24T04:55:54.904Z,88
2018-08-24T04:56:57.697Z,87
2018-08-24T04:57:59.795Z,87
2018-08-24T04:59:01.886Z,87
2018-08-24T05:00:04.276Z,87
2018-08-24T05:01:06.386Z,87
2018-08-24T05:02:08.479Z,87
2018-08-24T05:03:10.583Z,87
2018-08-24T05:04:13.297Z,87
2018-08-24T05:05:15.392Z,87
2018-08-24T05:06:17.807Z,87
2018-08-24T05:07:19.895Z,87
2018-08-24T05:08:22.297Z,87
2018-08-24T05:09:24.389Z,87
2018-08-24T05:10:26.823Z,87
2018-08-24T05:11:29.203Z,87
2018-08-24T05:12:31.305Z,87
2018-08-24T05:13:33.411Z,87
2018-08-24T05:14:35.813Z,88
2018-08-24T05:15:38.219Z,87
2018-08-24T05:16:40.315Z,88
2018-08-24T05:17:42.421Z,87
2018-08-24T05:18:44.505Z,88
2018-08-24T05:19:46.615Z,87
2018-08-24T05:20:48.711Z,87
2018-08-24T05:21:50.807Z,87
2018-08-24T05:22:52.917Z,87
2018-08-24T05:23:55.306Z,87
2018-08-24T05:24:57.705Z,88
2018-08-24T05:25:59.814Z,89
2018-08-24T05:27:01.918Z,89
2018-08-24T05:28:04.087Z,88
2018-08-24T05:29:06.445Z,88
2018-08-24T05:30:08.539Z,88
2018-08-24T05:31:10.633Z,88
2018-08-24T05:32:13.435Z,88
2018-08-24T05:33:15.928Z,88
2018-08-24T05:34:18.020Z,88
2018-08-24T05:35:20.130Z,88
2018-08-24T05:36:22.224Z,87
2018-08-24T05:37:24.626Z,87
2018-08-24T05:38:27.336Z,87
2018-08-24T05:39:29.429Z,87
2018-08-24T05:40:31.857Z,87
2018-08-24T05:41:34.123Z,87
2018-08-24T05:42:36.073Z,87
2018-08-24T05:43:38.559Z,87
2018-08-24T05:44:40.652Z,87
2018-08-24T05:45:42.751Z,87
2018-08-24T05:46:45.243Z,87
2018-08-24T05:47:47.333Z,87
2018-08-24T05:48:50.379Z,87
2018-08-24T05:49:52.461Z,86
2018-08-24T05:50:54.853Z,86
2018-08-24T05:51:56.939Z,86
2018-08-24T05:52:59.051Z,86
2018-08-24T05:54:01.140Z,86
2018-08-24T05:55:03.820Z,86
2018-08-24T05:56:05.935Z,86
2018-08-24T05:57:08.409Z,86
2018-08-24T05:58:10.517Z,86
2018-08-24T05:59:12.915Z,85
2018-08-24T06:00:15.302Z,85
2018-08-24T06:01:17.796Z,86
2018-08-24T06:02:20.258Z,86
2018-08-24T06:03:22.354Z,85
2018-08-24T06:04:24.450Z,84
2018-08-24T06:05:26.563Z,84
2018-08-24T06:06:28.662Z,85
2018-08-24T06:07:31.144Z,85
2018-08-24T06:08:33.575Z,84
2018-08-24T06:09:35.675Z,84
2018-08-24T06:10:37.763Z,84
2018-08-24T06:11:39.872Z,84
2018-08-24T06:12:41.959Z,84
2018-08-24T06:13:44.066Z,84
2018-08-24T06:14:46.167Z,83
2018-08-24T06:15:48.324Z,83
2018-08-24T06:16:50.831Z,83
2018-08-24T06:17:53.168Z,83
2018-08-24T06:18:55.263Z,83
2018-08-24T06:19:57.358Z,83
2018-08-24T06:20:59.749Z,83
2018-08-24T06:22:01.864Z,83
2018-08-24T06:23:04.254Z,83
2018-08-24T06:24:06.654Z,83
2018-08-24T06:25:09.122Z,83
2018-08-24T06:26:11.234Z,83
2018-08-24T06:27:14.008Z,83
2018-08-24T06:28:16.103Z,83
2018-08-24T06:29:18.217Z,83
2018-08-24T06:30:20.312Z,83
2018-08-24T06:31:22.701Z,82
2018-08-24T06:32:24.807Z,83
2018-08-24T06:33:27.192Z,82
2018-08-24T06:34:29.282Z,83
2018-08-24T06:35:31.389Z,83
2018-08-24T06:36:33.484Z,82
2018-08-24T06:37:35.970Z,81
2018-08-24T06:38:38.380Z,81
2018-08-24T06:39:40.481Z,81
2018-08-24T06:40:42.576Z,81
2018-08-24T06:41:44.713Z,81
2018-08-24T06:42:46.778Z,80
2018-08-24T06:43:48.874Z,80
2018-08-24T06:44:50.979Z,80
2018-08-24T06:45:53.071Z,80
2018-08-24T06:46:55.567Z,80
2018-08-24T06:47:57.673Z,80
2018-08-24T06:48:59.786Z,79
2018-08-24T06:50:02.272Z,79
2018-08-24T06:51:04.672Z,79
2018-08-24T06:52:06.772Z,78
2018-08-24T06:53:09.588Z,79
2018-08-24T06:54:11.705Z,79
2018-08-24T06:55:13.794Z,78
2018-08-24T06:56:16.192Z,78
2018-08-24T06:57:18.280Z,78
2018-08-24T06:58:20.396Z,78
2018-08-24T06:59:22.493Z,78
2018-08-24T07:00:24.589Z,79
2018-08-24T07:01:26.685Z,79
2018-08-24T07:02:28.798Z,77
2018-08-24T07:03:30.889Z,78
2018-08-24T07:04:33.381Z,78
2018-08-24T07:05:35.525Z,77
2018-08-24T07:06:37.928Z,77
2018-08-24T07:07:40.313Z,77
2018-08-24T07:08:42.419Z,76
2018-08-24T07:09:44.808Z,76
2018-08-24T07:10:46.906Z,76
2018-08-24T07:11:49.019Z,77
2018-08-24T07:12:51.142Z,76
2018-08-24T07:13:53.579Z,76
2018-08-24T07:14:56.091Z,76
2018-08-24T07:15:58.188Z,75
2018-08-24T07:17:00.280Z,74
2018-08-24T07:18:02.694Z,74
2018-08-24T07:19:04.789Z,73
2018-08-24T07:20:07.289Z,72
2018-08-24T07:21:09.777Z,73
2018-08-24T07:22:11.912Z,72
2018-08-24T07:23:13.999Z,73
2018-08-24T07:24:16.124Z,72
2018-08-24T07:25:18.335Z,73
2018-08-24T07:26:20.819Z,72
2018-08-24T07:27:22.937Z,72
2018-08-24T07:28:25.032Z,72
2018-08-24T07:29:27.541Z,72
2018-08-24T07:30:30.241Z,71
2018-08-24T07:31:32.650Z,72
2018-08-24T07:32:34.743Z,72
2018-08-24T07:33:37.241Z,71
2018-08-24T07:34:39.344Z,72
2018-08-24T07:35:42.500Z,70
2018-08-24T07:36:44.609Z,70
2018-08-24T07:37:46.714Z,70
2018-08-24T07:38:48.814Z,71
2018-08-24T07:39:50.910Z,70
2018-08-24T07:40:53.310Z,70
2018-08-24T07:41:55.848Z,70
2018-08-24T07:42:57.939Z,71
2018-08-24T07:44:00.334Z,70
2018-08-24T07:45:02.430Z,69
2018-08-24T07:46:04.536Z,70
2018-08-24T07:47:06.651Z,70
2018-08-24T07:48:08.742Z,70
2018-08-24T07:49:10.849Z,70
2018-08-24T07:50:13.242Z,70
2018-08-24T07:51:15.634Z,70
2018-08-24T07:52:18.042Z,70
2018-08-24T07:53:20.437Z,70
2018-08-24T07:54:22.535Z,70
2018-08-24T07:55:24.639Z,69
2018-08-24T07:56:26.754Z,69
2018-08-24T07:57:28.844Z,69
2018-08-24T07:58:30.956Z,68
2018-08-24T07:59:33.064Z,67
2018-08-24T08:00:35.146Z,68
2018-08-24T08:01:37.262Z,67
2018-08-24T08:02:39.361Z,66
2018-08-24T08:03:41.469Z,64
2018-08-24T08:04:43.555Z,61
2018-08-24T08:05:45.666Z,61
2018-08-24T08:06:47.765Z,58
2018-08-24T08:07:50.152Z,58
2018-08-24T08:08:52.268Z,59
2018-08-24T08:09:54.648Z,60
2018-08-24T08:10:56.750Z,59
2018-08-24T08:11:58.860Z,59
2018-08-24T08:13:01.261Z,59
2018-08-24T08:14:03.649Z,59
2018-08-24T08:15:05.753Z,59
2018-08-24T08:16:07.862Z,59
2018-08-24T08:17:09.970Z,60
2018-08-24T08:18:12.459Z,60
2018-08-24T08:19:14.543Z,60
2018-08-24T08:20:16.652Z,61
2018-08-24T08:21:18.739Z,60
2018-08-24T08:22:21.233Z,60
2018-08-24T08:23:23.350Z,61
2018-08-24T08:24:25.435Z,60
2018-08-24T08:25:28.233Z,60
2018-08-24T08:26:30.653Z,61
2018-08-24T08:27:32.749Z,61
2018-08-24T08:28:34.842Z,60
2018-08-24T08:29:36.958Z,61
2018-08-24T08:30:39.053Z,61
2018-08-24T08:31:41.160Z,61
2018-08-24T08:32:43.663Z,61
2018-08-24T08:33:45.754Z,62
2018-08-24T08:34:47.862Z,61
2018-08-24T08:35:49.965Z,61
2018-08-24T08:36:52.071Z,62
2018-08-24T08:37:54.162Z,62
2018-08-24T08:38:56.328Z,62
2018-08-24T08:39:58.717Z,62
2018-08-24T08:41:00.820Z,62
2018-08-24T08:42:02.942Z,62
2018-08-24T08:43:05.030Z,61
2018-08-24T08:44:07.427Z,61
2018-08-24T08:45:09.545Z,60
2018-08-24T08:46:11.654Z,60
2018-08-24T08:47:14.138Z,60
2018-08-24T08:48:16.259Z,60
2018-08-24T08:49:18.347Z,60
2018-08-24T08:50:20.449Z,60
2018-08-24T08:51:22.562Z,60
2018-08-24T08:52:24.665Z,60
2018-08-24T08:53:26.791Z,60
2018-08-24T08:54:28.864Z,60
2018-08-24T08:55:30.969Z,60
2018-08-24T08:56:33.467Z,60
2018-08-24T08:57:35.565Z,60
2018-08-24T08:58:37.680Z,60
2018-08-24T08:59:39.781Z,60
2018-08-24T09:00:41.887Z,60
2018-08-24T09:01:43.987Z,60
2018-08-24T09:02:46.102Z,60
2018-08-24T09:03:48.498Z,60
2018-08-24T09:04:50.606Z,59
2018-08-24T09:05:52.751Z,59
2018-08-24T09:06:54.825Z,58
2018-08-24T09:07:57.021Z,58
2018-08-24T09:08:59.153Z,57
2018-08-24T09:10:01.253Z,57
2018-08-24T09:11:03.340Z,56
2018-08-24T09:12:05.455Z,57
2018-08-24T09:13:07.941Z,57
2018-08-24T09:14:10.042Z,58
2018-08-24T09:15:12.452Z,58
2018-08-24T09:16:14.545Z,58
2018-08-24T09:17:16.651Z,58
2018-08-24T09:18:18.772Z,59
2018-08-24T09:19:21.173Z,59
2018-08-24T09:20:23.263Z,58
2018-08-24T09:21:25.371Z,56
2018-08-24T09:22:27.471Z,55
2018-08-24T09:23:29.579Z,55
2018-08-24T09:24:31.985Z,55
2018-08-24T09:25:34.099Z,55
2018-08-24T09:26:36.188Z,54
2018-08-24T09:27:38.699Z,55
2018-08-24T09:28:40.802Z,55
2018-08-24T09:29:42.907Z,54
2018-08-24T09:30:45.304Z,55
2018-08-24T09:31:47.424Z,55
2018-08-24T09:32:49.562Z,54
2018-08-24T09:33:51.636Z,56
2018-08-24T09:34:53.734Z,55
2018-08-24T09:35:55.856Z,56
2018-08-24T09:36:57.957Z,55
2018-08-24T09:38:00.082Z,57
2018-08-24T09:39:02.467Z,55
2018-08-24T09:40:04.562Z,56
2018-08-24T09:41:06.678Z,56
2018-08-24T09:42:08.783Z,56
2018-08-24T09:43:10.951Z,54
2018-08-24T09:44:12.985Z,55
2018-08-24T09:45:15.489Z,55
2018-08-24T09:46:17.884Z,55
2018-08-24T09:47:20.367Z,55
2018-08-24T09:48:22.495Z,55
2018-08-24T09:49:24.882Z,54
2018-08-24T09:50:27.304Z,53
2018-08-24T09:51:29.704Z,54
2018-08-24T09:52:31.810Z,54
2018-08-24T09:53:33.904Z,54
2018-08-24T09:54:36.303Z,55
2018-08-24T09:55:38.403Z,55
2018-08-24T09:56:40.808Z,54
2018-08-24T09:57:43.284Z,55
2018-08-24T09:58:45.344Z,54
2018-08-24T09:59:47.444Z,56
2018-08-24T10:00:49.559Z,54
2018-08-24T10:01:52.051Z,53
2018-08-24T10:02:54.181Z,54
2018-08-24T10:03:56.641Z,54
2018-08-24T10:04:58.731Z,54
2018-08-24T10:06:00.845Z,54
2018-08-24T10:07:02.959Z,54
2018-08-24T10:08:05.076Z,54
2018-08-24T10:09:07.165Z,55
2018-08-24T10:10:09.281Z,55
2018-08-24T10:11:11.672Z,55
2018-08-24T10:12:13.767Z,55
2018-08-24T10:13:16.301Z,56
2018-08-24T10:14:18.395Z,57
2018-08-24T10:15:20.513Z,57
2018-08-24T10:16:22.909Z,56
2018-08-24T10:17:25.321Z,55
2018-08-24T10:18:27.419Z,56
2018-08-24T10:19:29.530Z,56
2018-08-24T10:20:31.955Z,56
2018-08-24T10:21:34.056Z,57
2018-08-24T10:22:36.456Z,57
2018-08-24T10:23:38.555Z,56
2018-08-24T10:24:40.651Z,56
2018-08-24T10:25:42.748Z,56
2018-08-24T10:26:45.153Z,55
2018-08-24T10:27:47.264Z,56
2018-08-24T10:28:49.371Z,56
2018-08-24T10:29:52.197Z,57
2018-08-24T10:30:54.203Z,57
2018-08-24T10:31:56.601Z,57
2018-08-24T10:32:58.714Z,57
2018-08-24T10:34:00.803Z,57
2018-08-24T10:35:02.923Z,58
2018-08-24T10:36:05.028Z,59
2018-08-24T10:37:07.125Z,58
2018-08-24T10:38:09.243Z,58
2018-08-24T10:39:12.428Z,59
2018-08-24T10:40:14.386Z,59
2018-08-24T10:41:16.894Z,58
2018-08-24T10:42:19.009Z,58
2018-08-24T10:43:21.102Z,58
2018-08-24T10:44:23.212Z,59
2018-08-24T10:45:25.720Z,58
2018-08-24T10:46:27.829Z,58
2018-08-24T10:47:29.925Z,58
2018-08-24T10:48:32.331Z,59
2018-08-24T10:49:35.368Z,58
2018-08-24T10:50:37.774Z,57
2018-08-24T10:51:39.869Z,58
2018-08-24T10:52:42.297Z,58
2018-08-24T10:53:44.411Z,59
2018-08-24T10:54:46.510Z,58
2018-08-24T10:55:48.714Z,59
2018-08-24T10:56:51.596Z,59
2018-08-24T10:57:53.697Z,59
2018-08-24T10:58:55.806Z,59
2018-08-24T10:59:57.922Z,59
2018-08-24T11:01:00.020Z,59
2018-08-24T11:02:02.682Z,59
2018-08-24T11:03:04.720Z,59
2018-08-24T11:04:06.812Z,59
2018-08-24T11:05:08.917Z,59
2018-08-24T11:06:11.030Z,59
2018-08-24T11:07:13.149Z,59
2018-08-24T11:08:15.241Z,59
2018-08-24T11:09:17.931Z,59
2018-08-24T11:10:20.030Z,58
2018-08-24T11:11:22.148Z,59
2018-08-24T11:12:24.245Z,59
2018-08-24T11:13:26.344Z,59
2018-08-24T11:14:28.731Z,59
2018-08-24T11:15:30.852Z,59
2018-08-24T11:16:32.945Z,59
2018-08-24T11:17:35.732Z,59
2018-08-24T11:18:38.139Z,58
2018-08-24T11:19:40.623Z,58
2018-08-24T11:20:42.743Z,59
2018-08-24T11:21:45.148Z,58
2018-08-24T11:22:47.259Z,57
2018-08-24T11:23:49.348Z,57
2018-08-24T11:24:51.458Z,57
2018-08-24T11:25:53.956Z,57
2018-08-24T11:26:56.694Z,57
2018-08-24T11:27:58.696Z,57
2018-08-24T11:29:00.811Z,57
2018-08-24T11:30:02.912Z,56
2018-08-24T11:31:05.012Z,56
2018-08-24T11:32:07.113Z,56
2018-08-24T11:33:09.258Z,55
2018-08-24T11:34:11.334Z,56
2018-08-24T11:35:13.833Z,55
2018-08-24T11:36:15.974Z,55
2018-08-24T11:37:18.045Z,56
2018-08-24T11:38:20.155Z,55
2018-08-24T11:39:22.565Z,54
2018-08-24T11:40:24.657Z,55
2018-08-24T11:41:27.115Z,55
2018-08-24T11:42:29.619Z,55
2018-08-24T11:43:32.685Z,55
2018-08-24T11:44:34.808Z,55
2018-08-24T11:45:37.291Z,55
2018-08-24T11:46:39.396Z,55
2018-08-24T11:47:41.849Z,55
2018-08-24T11:48:43.910Z,56
2018-08-24T11:49:46.012Z,55
2018-08-24T11:50:48.532Z,55
2018-08-24T11:51:50.648Z,55
2018-08-24T11:52:52.743Z,55
2018-08-24T11:53:54.875Z,55
2018-08-24T11:54:56.974Z,55
2018-08-24T11:55:59.372Z,55
2018-08-24T11:57:01.466Z,54
2018-08-24T11:58:04.289Z,54
2018-08-24T11:59:06.677Z,54
2018-08-24T12:00:08.785Z,55
2018-08-24T12:01:10.912Z,54
2018-08-24T12:02:13.946Z,55
2018-08-24T12:03:15.955Z,55
2018-08-24T12:04:18.058Z,54
2018-08-24T12:05:20.163Z,54
2018-08-24T12:06:22.303Z,54
2018-08-24T12:07:24.459Z,54
2018-08-24T12:08:27.219Z,54
2018-08-24T12:09:30.125Z,54
2018-08-24T12:10:32.237Z,54
2018-08-24T12:11:34.349Z,54
2018-08-24T12:12:36.539Z,54
2018-08-24T12:13:38.563Z,55
2018-08-24T12:14:40.675Z,55
2018-08-24T12:15:42.794Z,55
2018-08-24T12:16:44.903Z,55
2018-08-24T12:17:47.013Z,56
2018-08-24T12:18:49.116Z,55
2018-08-24T12:19:52.979Z,55
2018-08-24T12:20:56.161Z,55
2018-08-24T12:21:58.283Z,55
2018-08-24T12:23:00.381Z,56
2018-08-24T12:24:02.490Z,56
2018-08-24T12:25:04.604Z,56
2018-08-24T12:26:06.712Z,56
2018-08-24T12:27:09.484Z,55
2018-08-24T12:28:11.939Z,55
2018-08-24T12:29:14.055Z,55
2018-08-24T12:30:16.150Z,55
2018-08-24T12:31:18.583Z,55
2018-08-24T12:32:20.687Z,55
2018-08-24T12:33:22.789Z,55
2018-08-24T12:34:25.251Z,55
2018-08-24T12:35:27.348Z,54
2018-08-24T12:36:29.851Z,54
2018-08-24T12:37:31.966Z,55
2018-08-24T12:38:34.080Z,54
2018-08-24T12:39:36.176Z,54
2018-08-24T12:40:38.293Z,55
2018-08-24T12:41:40.681Z,55
2018-08-24T12:42:42.787Z,55
2018-08-24T12:43:45.428Z,56
2018-08-24T12:44:47.537Z,55
2018-08-24T12:45:49.633Z,55
2018-08-24T12:46:51.747Z,55
2018-08-24T12:47:53.846Z,56
2018-08-24T12:48:56.239Z,56
2018-08-24T12:49:58.356Z,56
2018-08-24T12:51:00.457Z,56
2018-08-24T12:52:03.003Z,56
2018-08-24T12:53:05.471Z,57
2018-08-24T12:54:07.605Z,56
2018-08-24T12:55:09.704Z,56
2018-08-24T12:56:12.209Z,56
2018-08-24T12:57:14.312Z,56
2018-08-24T12:58:16.415Z,57
2018-08-24T12:59:18.535Z,56
2018-08-24T13:00:20.925Z,56
2018-08-24T13:01:23.320Z,57
2018-08-24T13:02:25.420Z,56
2018-08-24T13:03:27.541Z,57
2018-08-24T13:04:29.645Z,56
2018-08-24T13:05:32.150Z,56
2018-08-24T13:06:34.263Z,56
2018-08-24T13:07:36.646Z,57
2018-08-24T13:08:38.790Z,56
2018-08-24T13:09:41.265Z,56
2018-08-24T13:10:43.364Z,55
2018-08-24T13:11:45.465Z,54
2018-08-24T13:12:47.635Z,54
2018-08-24T13:13:49.686Z,53
2018-08-24T13:14:51.800Z,53
2018-08-24T13:15:53.909Z,54
2018-08-24T13:16:56.007Z,55
2018-08-24T13:17:58.107Z,54
2018-08-24T13:19:00.209Z,53
2018-08-24T13:20:02.327Z,52
2018-08-24T13:21:04.428Z,51
2018-08-24T13:22:06.522Z,51
2018-08-24T13:23:08.644Z,51
2018-08-24T13:24:11.129Z,51
2018-08-24T13:25:13.240Z,50
2018-08-24T13:26:15.350Z,49
2018-08-24T13:27:17.539Z,49
2018-08-24T13:28:19.561Z,50
2018-08-24T13:29:21.678Z,49
2018-08-24T13:30:23.782Z,49
2018-08-24T13:31:26.166Z,48
2018-08-24T13:32:28.584Z,49
2018-08-24T13:33:30.683Z,48
2018-08-24T13:34:33.183Z,48
2018-08-24T13:35:35.285Z,48
2018-08-24T13:36:37.409Z,46
2018-08-24T13:37:39.506Z,46
2018-08-24T13:38:41.617Z,45
2018-08-24T13:39:44.156Z,45
2018-08-24T13:40:47.500Z,45
2018-08-24T13:41:49.736Z,45
2018-08-24T13:42:51.850Z,44
2018-08-24T13:43:53.948Z,45
2018-08-24T13:44:56.071Z,46
2018-08-24T13:45:58.175Z,47
2018-08-24T13:47:00.278Z,46
2018-08-24T13:48:02.404Z,46
2018-08-24T13:49:04.520Z,46
2018-08-24T13:50:06.616Z,47
2018-08-24T13:51:08.728Z,48
2018-08-24T13:52:10.845Z,48
2018-08-24T13:53:12.937Z,47
2018-08-24T13:54:15.439Z,47
2018-08-24T13:55:17.868Z,47
2018-08-24T13:56:19.967Z,48
2018-08-24T13:57:22.764Z,47
2018-08-24T13:58:24.867Z,47
2018-08-24T13:59:26.989Z,47
2018-08-24T14:00:29.068Z,48
2018-08-24T14:01:31.486Z,47
2018-08-24T14:02:33.588Z,46
2018-08-24T14:03:35.699Z,47
2018-08-24T14:04:37.815Z,47
2018-08-24T14:05:39.909Z,48
2018-08-24T14:06:42.030Z,47
2018-08-24T14:07:44.442Z,48
2018-08-24T14:08:46.556Z,47
2018-08-24T14:09:48.948Z,47
2018-08-24T14:10:51.070Z,48
2018-08-24T14:11:53.560Z,48
2018-08-24T14:12:56.318Z,48
2018-08-24T14:13:58.394Z,49
2018-08-24T14:15:00.487Z,49
2018-08-24T14:16:02.597Z,48
2018-08-24T14:17:04.715Z,49
2018-08-24T14:18:07.599Z,50
2018-08-24T14:19:09.695Z,49
2018-08-24T14:20:11.803Z,49
2018-08-24T14:21:13.901Z,48
2018-08-24T14:22:16.010Z,49
2018-08-24T14:23:18.123Z,49
2018-08-24T14:24:20.224Z,49
2018-08-24T14:25:22.341Z,49
2018-08-24T14:26:24.925Z,49
2018-08-24T14:27:27.291Z,48
2018-08-24T14:28:29.693Z,49
2018-08-24T14:29:32.097Z,49
2018-08-24T14:30:34.192Z,50
2018-08-24T14:31:36.676Z,49
2018-08-24T14:32:39.161Z,49
2018-08-24T14:33:41.282Z,48
2018-08-24T14:34:43.395Z,49
2018-08-24T14:35:45.796Z,48
2018-08-24T14:36:47.906Z,47
2018-08-24T14:37:50.022Z,48
2018-08-24T14:38:52.119Z,48
2018-08-24T14:39:54.550Z,49
2018-08-24T14:40:56.654Z,50
2018-08-24T14:41:58.773Z,50
2018-08-24T14:43:01.156Z,51
2018-08-24T14:44:03.572Z,51
2018-08-24T14:45:05.675Z,52
2018-08-24T14:46:07.779Z,51
2018-08-24T14:47:10.205Z,51